Time;durP1;ratioP1;P1;durP2;ratioP2;P2;SDS_P1;SDS_P2;PMS_P1;PMS_P2;Temp;Humidity;BMP_temperature;BMP_pressure;BME280_temperature;BME280_humidity;BME280_pressure;Samples;Min_cycle;Max_cycle;Signal;HPM_P1;HPM_P2
2023/03/25 00:00:57;;;;;;;6.53;1.10;;;8.50;76.50;;;;;;4203604;28;20097;-84
2023/03/25 00:03:16;;;;;;;8.90;1.52;;;8.40;76.30;;;;;;4221978;28;20088;-85
2023/03/25 00:05:39;;;;;;;4.32;1.00;;;8.40;76.10;;;;;;4206430;28;20659;-84
2023/03/25 00:07:58;;;;;;;11.15;1.30;;;8.40;76.00;;;;;;4216439;27;20081;-86
2023/03/25 00:10:19;;;;;;;11.13;1.90;;;8.50;76.00;;;;;;4238418;28;20101;-84
2023/03/25 00:12:39;;;;;;;6.03;1.38;;;8.50;76.10;;;;;;4228599;28;20050;-84
2023/03/25 00:14:59;;;;;;;10.82;1.40;;;8.50;76.00;;;;;;4224738;28;20058;-85
2023/03/25 00:17:19;;;;;;;9.52;1.63;;;8.50;76.10;;;;;;4222194;28;20066;-84
2023/03/25 00:19:40;;;;;;;12.20;1.48;;;8.50;76.20;;;;;;4219865;28;20162;-83
2023/03/25 00:21:59;;;;;;;6.82;1.40;;;8.50;76.10;;;;;;4217802;28;20062;-83
2023/03/25 00:24:18;;;;;;;7.30;1.40;;;8.60;76.90;;;;;;4223295;28;20058;-84
2023/03/25 00:26:41;;;;;;;6.00;1.17;;;8.50;76.80;;;;;;4216925;28;20062;-83
2023/03/25 00:29:00;;;;;;;9.95;1.48;;;8.50;76.80;;;;;;4203759;28;20105;-84
2023/03/25 00:31:19;;;;;;;12.35;1.63;;;8.60;76.30;;;;;;4208502;28;20039;-84
2023/03/25 00:33:40;;;;;;;10.07;1.65;;;8.60;76.40;;;;;;4215275;28;20090;-84
2023/03/25 00:35:59;;;;;;;8.18;1.83;;;8.60;76.50;;;;;;4214684;28;20084;-85
2023/03/25 00:38:19;;;;;;;8.93;1.55;;;8.60;76.60;;;;;;4198410;28;20417;-84
2023/03/25 00:40:39;;;;;;;9.45;1.85;;;8.60;76.40;;;;;;4198453;28;20051;-84
2023/03/25 00:42:58;;;;;;;11.02;1.67;;;8.60;76.50;;;;;;4208170;28;20046;-84
2023/03/25 00:45:17;;;;;;;8.50;1.77;;;8.60;76.50;;;;;;4206029;28;20097;-84
2023/03/25 00:47:37;;;;;;;11.40;2.35;;;8.70;76.60;;;;;;4205376;28;20089;-85
2023/03/25 00:49:56;;;;;;;8.30;1.85;;;8.60;76.60;;;;;;4203913;28;20046;-84
2023/03/25 00:52:15;;;;;;;9.98;1.90;;;8.70;76.70;;;;;;4221643;28;20043;-84
2023/03/25 00:54:35;;;;;;;8.82;1.88;;;8.70;76.60;;;;;;4218684;28;20125;-84
2023/03/25 00:56:54;;;;;;;12.25;2.35;;;8.70;76.60;;;;;;4206412;28;20163;-83
2023/03/25 00:59:14;;;;;;;9.55;2.15;;;8.80;76.80;;;;;;4202997;28;20508;-86
2023/03/25 01:01:38;;;;;;;12.75;2.10;;;8.70;76.80;;;;;;4217450;28;20074;-85
2023/03/25 01:03:58;;;;;;;13.80;2.20;;;8.80;76.80;;;;;;4204854;28;20046;-84
2023/03/25 01:06:20;;;;;;;9.57;2.10;;;8.80;76.70;;;;;;4216974;28;20034;-84
2023/03/25 01:08:43;;;;;;;15.18;2.55;;;8.70;76.50;;;;;;4203260;28;20391;-83
2023/03/25 01:11:03;;;;;;;15.32;2.40;;;8.70;76.60;;;;;;4220994;28;20246;-83
2023/03/25 01:13:22;;;;;;;12.13;2.28;;;8.70;76.40;;;;;;4219466;28;20043;-85
2023/03/25 01:15:42;;;;;;;14.23;2.30;;;8.70;76.40;;;;;;4210890;28;20508;-84
2023/03/25 01:18:01;;;;;;;11.32;2.20;;;8.80;76.50;;;;;;4201649;28;20425;-86
2023/03/25 01:20:20;;;;;;;9.98;2.50;;;8.80;76.40;;;;;;4214872;28;20132;-85
2023/03/25 01:22:39;;;;;;;19.75;2.40;;;8.80;76.30;;;;;;4217055;28;20054;-84
2023/03/25 01:24:58;;;;;;;15.15;2.58;;;8.80;76.30;;;;;;4217111;28;20413;-83
2023/03/25 01:27:17;;;;;;;16.27;2.58;;;8.80;76.20;;;;;;4206605;28;20599;-84
2023/03/25 01:29:36;;;;;;;12.32;2.97;;;8.80;76.00;;;;;;4220827;28;20096;-84
2023/03/25 01:31:56;;;;;;;17.23;2.40;;;8.80;76.20;;;;;;4216894;28;20109;-85
2023/03/25 01:34:15;;;;;;;13.10;2.03;;;8.80;76.00;;;;;;4219633;28;20051;-84
2023/03/25 01:36:38;;;;;;;12.63;1.75;;;8.80;75.90;;;;;;4208782;28;20543;-85
2023/03/25 01:38:58;;;;;;;12.45;2.20;;;8.90;76.00;;;;;;4223493;28;20512;-84
2023/03/25 01:41:18;;;;;;;25.60;3.33;;;8.80;76.00;;;;;;4209555;28;20039;-84
2023/03/25 01:43:36;;;;;;;14.55;1.90;;;8.90;75.80;;;;;;4227086;28;20043;-84
2023/03/25 01:45:56;;;;;;;14.02;2.05;;;8.90;75.80;;;;;;4225918;28;20066;-84
2023/03/25 01:48:21;;;;;;;13.02;2.40;;;8.90;75.70;;;;;;4218688;27;20043;-84
2023/03/25 01:50:48;;;;;;;16.63;2.30;;;8.90;75.70;;;;;;4219534;28;20108;-84
2023/03/25 01:53:09;;;;;;;16.20;2.28;;;9.00;75.70;;;;;;4222110;28;20076;-84
2023/03/25 01:55:32;;;;;;;13.23;1.95;;;8.90;75.60;;;;;;4227110;28;20039;-85
2023/03/25 01:57:54;;;;;;;13.27;1.85;;;8.90;75.70;;;;;;4213987;28;21200;-84
2023/03/25 02:00:17;;;;;;;11.40;2.05;;;8.90;75.80;;;;;;4223647;28;20603;-84
2023/03/25 02:02:38;;;;;;;15.60;2.67;;;8.80;75.80;;;;;;4223361;28;20039;-84
2023/03/25 02:05:02;;;;;;;11.40;1.73;;;9.00;75.90;;;;;;4222746;28;20545;-84
2023/03/25 02:07:21;;;;;;;17.02;1.88;;;8.80;75.70;;;;;;4225992;28;20062;-86
2023/03/25 02:09:41;;;;;;;16.92;2.22;;;8.90;75.80;;;;;;4212391;28;20098;-85
2023/03/25 02:12:00;;;;;;;12.70;2.05;;;8.80;75.80;;;;;;4224105;28;20031;-85
2023/03/25 02:14:23;;;;;;;17.27;2.78;;;8.70;75.80;;;;;;4221937;28;20395;-84
2023/03/25 02:17:10;;;;;;;19.27;2.60;;;8.80;76.00;;;;;;4215046;27;20106;-85
2023/03/25 02:19:44;;;;;;;16.55;2.25;;;8.80;76.20;;;;;;4214115;28;20105;-86
2023/03/25 02:22:13;;;;;;;22.27;3.67;;;8.70;76.30;;;;;;4220620;28;20042;-85
2023/03/25 02:24:52;;;;;;;18.08;3.05;;;8.70;76.40;;;;;;4214648;28;20037;-83
2023/03/25 02:27:50;;;;;;;19.17;2.70;;;8.70;76.40;;;;;;4219818;28;20176;-84
2023/03/25 02:30:27;;;;;;;17.77;2.75;;;8.70;76.60;;;;;;4213596;28;20069;-85
2023/03/25 02:33:25;;;;;;;22.30;3.55;;;8.60;76.60;;;;;;4215855;28;20042;-85
2023/03/25 02:35:48;;;;;;;16.40;2.83;;;8.60;76.70;;;;;;4217517;28;20070;-84
2023/03/25 02:38:35;;;;;;;17.95;2.80;;;8.60;76.80;;;;;;4202832;28;20051;-84
2023/03/25 02:40:52;;;;;;;14.77;2.80;;;8.60;76.80;;;;;;4200411;28;20103;-85
2023/03/25 02:43:01;;;;;;;16.23;2.90;;;8.70;77.10;;;;;;4217194;28;20081;-84
2023/03/25 02:45:15;;;;;;;15.85;3.03;;;8.60;77.10;;;;;;4218303;28;20031;-86
2023/03/25 02:47:19;;;;;;;18.70;3.08;;;8.60;77.10;;;;;;4201718;28;20497;-85
2023/03/25 02:49:25;;;;;;;;;;;8.60;77.30;;;;;;4198927;28;20489;-85
2023/03/25 02:51:31;;;;;;;22.23;3.13;;;8.60;78.20;;;;;;4218039;28;19912;-85
2023/03/25 02:53:34;;;;;;;20.30;3.70;;;8.60;77.20;;;;;;4221653;28;20020;-85
2023/03/25 02:55:37;;;;;;;19.95;2.90;;;8.60;77.30;;;;;;4224036;28;20111;-84
2023/03/25 02:57:44;;;;;;;18.42;3.65;;;8.60;77.30;;;;;;4206086;28;20091;-85
2023/03/25 02:59:47;;;;;;;20.02;3.20;;;8.60;77.50;;;;;;4209473;28;20028;-85
2023/03/25 03:01:49;;;;;;;20.13;3.25;;;8.60;77.80;;;;;;4208522;28;20088;-84
2023/03/25 03:03:50;;;;;;;21.13;2.85;;;8.60;77.70;;;;;;4213612;28;20020;-84
2023/03/25 03:05:53;;;;;;;24.42;3.40;;;8.60;78.00;;;;;;4206352;28;20039;-84
2023/03/25 03:08:00;;;;;;;;;;;8.60;77.90;;;;;;4224291;28;20038;-84
2023/03/25 03:10:21;;;;;;;27.75;3.00;;;8.60;78.10;;;;;;4206127;28;19905;-85
2023/03/25 03:12:25;;;;;;;24.23;3.00;;;8.60;77.70;;;;;;4214870;28;20055;-84
2023/03/25 03:14:25;;;;;;;21.67;3.45;;;8.60;77.70;;;;;;4223580;28;20053;-85
2023/03/25 03:16:48;;;;;;;30.52;3.55;;;8.70;77.80;;;;;;4203212;28;20025;-84
2023/03/25 03:19:07;;;;;;;16.58;2.92;;;8.60;77.80;;;;;;4218243;28;20035;-84
2023/03/25 03:21:16;;;;;;;25.13;3.38;;;8.60;77.90;;;;;;4196641;28;20810;-85
2023/03/25 03:23:32;;;;;;;21.98;3.65;;;8.60;77.80;;;;;;4192556;28;20111;-85
2023/03/25 03:25:39;;;;;;;18.92;2.80;;;8.60;77.90;;;;;;4207799;28;20026;-84
2023/03/25 03:27:49;;;;;;;17.83;2.65;;;8.60;77.90;;;;;;4225109;28;20039;-86
2023/03/25 03:29:59;;;;;;;23.85;3.45;;;8.60;77.80;;;;;;4222402;28;20083;-84
2023/03/25 03:32:05;;;;;;;19.50;2.95;;;8.60;77.80;;;;;;4207488;28;20020;-84
2023/03/25 03:34:15;;;;;;;28.42;3.67;;;8.60;77.70;;;;;;4204991;28;20027;-84
2023/03/25 03:36:23;;;;;;;35.65;3.65;;;8.60;77.70;;;;;;4222306;28;20031;-86
2023/03/25 03:38:28;;;;;;;20.33;3.08;;;8.60;77.70;;;;;;4205555;28;20513;-85
2023/03/25 03:40:31;;;;;;;23.35;2.78;;;8.60;77.70;;;;;;4221152;28;20161;-84
2023/03/25 03:43:05;;;;;;;26.77;3.20;;;8.60;77.70;;;;;;4222127;28;20042;-84
2023/03/25 03:45:29;;;;;;;22.85;2.70;;;8.60;77.80;;;;;;4221239;28;20024;-84
2023/03/25 03:47:40;;;;;;;30.63;3.22;;;8.60;77.70;;;;;;4218333;28;20024;-84
2023/03/25 03:49:49;;;;;;;19.20;3.05;;;8.60;77.60;;;;;;4218923;28;20032;-84
2023/03/25 03:51:55;;;;;;;31.08;3.35;;;8.50;77.50;;;;;;4217762;28;20754;-84
2023/03/25 03:54:01;;;;;;;23.55;4.10;;;8.50;77.60;;;;;;4209651;28;20016;-84
2023/03/25 03:56:18;;;;;;;31.35;3.55;;;8.50;77.50;;;;;;4220985;28;20019;-84
2023/03/25 03:58:27;;;;;;;20.08;2.60;;;8.50;77.70;;;;;;4219070;28;20041;-84
2023/03/25 04:00:35;;;;;;;17.67;3.15;;;8.50;77.60;;;;;;4223004;28;20055;-85
2023/03/25 04:02:52;;;;;;;29.60;3.63;;;8.50;77.50;;;;;;4190021;28;20036;-84
2023/03/25 04:04:54;;;;;;;24.83;3.38;;;8.40;77.60;;;;;;4223379;28;20032;-84
2023/03/25 04:07:10;;;;;;;22.67;3.25;;;8.50;77.60;;;;;;4199433;28;20031;-84
2023/03/25 04:09:27;;;;;;;21.00;3.10;;;8.50;77.60;;;;;;4190831;28;20665;-83
2023/03/25 04:11:39;;;;;;;22.92;2.75;;;8.60;77.80;;;;;;4219583;28;20071;-85
2023/03/25 04:13:43;;;;;;;32.30;3.88;;;8.50;77.50;;;;;;4222082;28;20049;-85
2023/03/25 04:15:43;;;;;;;19.90;2.90;;;8.50;77.60;;;;;;4205263;28;20644;-84
2023/03/25 04:17:46;;;;;;;27.85;3.45;;;8.50;77.70;;;;;;4184660;28;20039;-84
2023/03/25 04:19:52;;;;;;;23.65;3.33;;;8.50;77.60;;;;;;4202951;28;20083;-84
2023/03/25 04:21:53;;;;;;;25.70;3.38;;;8.60;77.70;;;;;;4201136;28;20553;-84
2023/03/25 04:23:54;;;;;;;16.52;2.60;;;8.50;77.60;;;;;;4200572;28;20540;-84
2023/03/25 04:26:01;;;;;;;27.65;2.97;;;8.60;77.70;;;;;;4220224;28;20105;-84
2023/03/25 04:28:06;;;;;;;19.83;3.00;;;8.50;77.50;;;;;;4204524;28;20032;-84
2023/03/25 04:30:07;;;;;;;17.98;2.88;;;8.60;77.60;;;;;;4207379;28;20035;-83
2023/03/25 04:32:10;;;;;;;18.13;3.05;;;8.50;77.50;;;;;;4216209;28;20038;-84
2023/03/25 04:34:15;;;;;;;19.35;3.38;;;8.60;77.50;;;;;;4219433;28;20028;-83
2023/03/25 04:36:16;;;;;;;22.50;3.00;;;8.50;77.50;;;;;;4203834;28;20688;-84
2023/03/25 04:38:19;;;;;;;32.58;3.47;;;8.60;77.50;;;;;;4206432;28;20053;-84
2023/03/25 04:40:20;;;;;;;30.35;3.22;;;8.50;77.30;;;;;;4219296;28;20361;-85
2023/03/25 04:42:24;;;;;;;22.58;3.20;;;8.60;77.30;;;;;;4213860;28;20027;-84
2023/03/25 04:44:25;;;;;;;26.10;3.08;;;8.70;77.40;;;;;;4222517;28;20046;-85
2023/03/25 04:46:25;;;;;;;24.92;3.90;;;8.50;77.20;;;;;;4218664;28;20047;-84
2023/03/25 04:48:29;;;;;;;34.97;3.95;;;8.60;77.20;;;;;;4215287;28;20046;-84
2023/03/25 04:50:30;;;;;;;23.27;3.30;;;8.60;77.20;;;;;;4202897;28;20046;-84
2023/03/25 04:52:32;;;;;;;23.73;3.47;;;8.60;77.10;;;;;;4203842;28;20092;-84
2023/03/25 04:54:32;;;;;;;21.48;3.72;;;8.60;77.20;;;;;;4220140;28;20052;-84
2023/03/25 04:56:33;;;;;;;26.27;3.85;;;8.50;77.10;;;;;;4191957;28;20036;-84
2023/03/25 04:58:40;;;;;;;31.83;3.60;;;8.60;77.10;;;;;;4200738;28;20132;-84
2023/03/25 05:00:49;;;;;;;24.58;3.25;;;8.60;77.10;;;;;;4190901;28;20115;-83
2023/03/25 05:02:53;;;;;;;30.60;4.30;;;8.50;76.90;;;;;;4205589;28;20024;-83
2023/03/25 05:05:00;;;;;;;28.10;3.70;;;8.60;76.90;;;;;;4204584;28;20036;-85
2023/03/25 05:07:21;;;;;;;26.45;3.80;;;8.60;77.00;;;;;;4224395;28;20036;-84
2023/03/25 05:09:42;;;;;;;42.95;4.63;;;8.60;76.90;;;;;;4225909;28;20069;-84
2023/03/25 05:11:45;;;;;;;37.85;4.38;;;8.60;76.90;;;;;;4203210;28;20042;-84
2023/03/25 05:14:10;;;;;;;33.58;3.92;;;8.50;76.80;;;;;;4226914;28;20118;-84
2023/03/25 05:16:31;;;;;;;23.40;3.50;;;8.50;76.80;;;;;;4231850;28;20039;-85
2023/03/25 05:18:52;;;;;;;28.42;3.50;;;8.50;76.70;;;;;;4215027;28;20096;-85
2023/03/25 05:21:12;;;;;;;23.95;3.20;;;8.50;76.70;;;;;;4228881;28;20031;-84
2023/03/25 05:23:34;;;;;;;38.85;3.78;;;8.50;76.60;;;;;;4219055;28;20547;-84
2023/03/25 05:25:55;;;;;;;32.03;4.13;;;8.50;76.60;;;;;;4226908;27;20154;-85
2023/03/25 05:28:17;;;;;;;30.67;4.25;;;8.50;76.70;;;;;;4228737;28;20039;-84
2023/03/25 05:30:40;;;;;;;26.80;4.00;;;8.50;76.60;;;;;;4232328;28;20028;-85
2023/03/25 05:33:01;;;;;;;34.38;4.50;;;8.50;76.60;;;;;;4214090;28;20040;-84
2023/03/25 05:35:21;;;;;;;36.22;4.85;;;8.50;76.60;;;;;;4228227;28;20024;-85
2023/03/25 05:37:42;;;;;;;28.35;3.35;;;8.50;76.60;;;;;;4227536;28;20043;-84
2023/03/25 05:40:04;;;;;;;30.08;3.63;;;8.50;76.60;;;;;;4217006;28;20025;-84
2023/03/25 05:42:24;;;;;;;25.42;3.30;;;8.50;76.60;;;;;;4226271;28;20024;-84
2023/03/25 05:44:49;;;;;;;30.08;4.20;;;8.50;76.60;;;;;;4226187;28;20033;-84
2023/03/25 05:47:10;;;;;;;39.50;4.75;;;8.50;76.70;;;;;;4215538;28;20035;-83
2023/03/25 05:49:31;;;;;;;34.13;4.13;;;8.50;76.50;;;;;;4223520;28;20140;-84
2023/03/25 05:51:54;;;;;;;32.67;4.32;;;8.50;76.70;;;;;;4227342;28;20028;-83
2023/03/25 05:54:15;;;;;;;29.88;4.50;;;8.50;76.70;;;;;;4216721;28;20150;-84
2023/03/25 05:56:35;;;;;;;33.22;4.28;;;8.50;76.60;;;;;;4225147;28;20054;-84
2023/03/25 05:58:57;;;;;;;39.95;4.72;;;8.50;76.70;;;;;;4229400;27;20024;-85
2023/03/25 06:01:20;;;;;;;38.10;5.35;;;8.60;76.70;;;;;;4227810;28;20031;-84
2023/03/25 06:03:42;;;;;;;32.50;4.27;;;8.50;76.60;;;;;;4229541;28;20031;-86
2023/03/25 06:06:04;;;;;;;31.13;4.60;;;8.50;76.60;;;;;;4216138;28;20058;-85
2023/03/25 06:08:25;;;;;;;34.90;4.15;;;8.50;76.60;;;;;;4229626;28;20051;-85
2023/03/25 06:10:47;;;;;;;38.17;4.57;;;8.50;76.70;;;;;;4235394;28;20032;-84
2023/03/25 06:13:07;;;;;;;28.13;4.20;;;8.50;76.70;;;;;;4221235;28;20031;-86
2023/03/25 06:15:32;;;;;;;42.92;5.05;;;8.50;76.70;;;;;;4221234;27;20024;-83
2023/03/25 06:17:53;;;;;;;34.28;4.20;;;8.50;76.70;;;;;;4220145;28;20065;-84
2023/03/25 06:20:15;;;;;;;32.30;4.13;;;8.50;76.70;;;;;;4218903;28;20097;-84
2023/03/25 06:22:43;;;;;;;25.67;4.65;;;8.50;76.80;;;;;;4212160;28;20047;-84
2023/03/25 06:25:04;;;;;;;37.67;4.63;;;8.50;76.80;;;;;;4208169;28;20069;-85
2023/03/25 06:27:25;;;;;;;42.13;4.22;;;8.50;76.80;;;;;;4224871;28;20044;-85
2023/03/25 06:29:47;;;;;;;35.80;4.85;;;8.50;76.90;;;;;;4225370;28;20236;-85
2023/03/25 06:32:10;;;;;;;34.70;4.25;;;8.50;76.80;;;;;;4223485;28;20406;-84
2023/03/25 06:34:34;;;;;;;36.92;4.50;;;8.40;76.80;;;;;;4223460;28;20035;-84
2023/03/25 06:36:54;;;;;;;31.27;4.50;;;8.50;76.90;;;;;;4226427;28;20046;-85
2023/03/25 06:39:16;;;;;;;27.25;4.57;;;8.50;76.90;;;;;;4208610;28;20032;-84
2023/03/25 06:41:36;;;;;;;33.20;4.13;;;8.50;76.90;;;;;;4226308;28;20187;-85
2023/03/25 06:43:56;;;;;;;40.40;4.80;;;8.50;76.90;;;;;;4211725;28;20039;-85
2023/03/25 06:46:15;;;;;;;37.92;5.15;;;8.50;76.90;;;;;;4226248;28;20051;-84
2023/03/25 06:48:34;;;;;;;32.88;4.63;;;8.50;77.00;;;;;;4211341;28;20043;-84
2023/03/25 06:50:54;;;;;;;28.67;3.88;;;8.40;76.90;;;;;;4223495;28;22152;-84
2023/03/25 06:53:14;;;;;;;32.00;4.53;;;8.50;77.10;;;;;;4225833;28;20393;-85
2023/03/25 06:55:33;;;;;;;35.35;4.47;;;8.50;77.10;;;;;;4229230;28;20496;-85
2023/03/25 06:57:56;;;;;;;41.55;5.40;;;8.50;77.00;;;;;;4228563;28;20061;-84
2023/03/25 07:00:19;;;;;;;33.10;4.53;;;8.50;77.10;;;;;;4208809;28;20130;-85
2023/03/25 07:02:38;;;;;;;49.53;4.97;;;8.50;77.10;;;;;;4226549;28;20042;-84
2023/03/25 07:04:57;;;;;;;35.95;4.90;;;8.50;77.10;;;;;;4225803;28;20297;-86
2023/03/25 07:07:16;;;;;;;34.42;5.30;;;8.60;77.30;;;;;;4214139;28;20542;-85
2023/03/25 07:09:35;;;;;;;31.55;4.85;;;8.50;77.10;;;;;;4226842;28;20119;-86
2023/03/25 07:11:54;;;;;;;29.52;4.63;;;8.60;77.20;;;;;;4213318;28;20094;-83
2023/03/25 07:14:14;;;;;;;36.30;5.22;;;8.60;77.20;;;;;;4224467;28;20038;-83
2023/03/25 07:16:33;;;;;;;31.13;4.53;;;8.60;77.30;;;;;;4220974;28;20066;-85
2023/03/25 07:18:55;;;;;;;45.90;4.93;;;8.60;77.20;;;;;;4223534;28;20124;-84
2023/03/25 07:21:15;;;;;;;39.42;4.97;;;8.60;77.30;;;;;;4224322;28;20069;-84
2023/03/25 07:23:34;;;;;;;31.92;4.43;;;8.60;77.30;;;;;;4210302;28;20043;-84
2023/03/25 07:25:54;;;;;;;39.97;5.35;;;8.60;77.30;;;;;;4214581;28;20482;-85
2023/03/25 07:28:13;;;;;;;43.67;4.82;;;8.60;77.30;;;;;;4228760;28;20035;-84
2023/03/25 07:30:32;;;;;;;32.65;5.10;;;8.70;77.40;;;;;;4210259;28;20046;-85
2023/03/25 07:32:51;;;;;;;34.03;5.13;;;8.70;77.40;;;;;;4223710;28;20062;-85
2023/03/25 07:35:11;;;;;;;38.08;5.22;;;8.70;77.30;;;;;;4206446;28;20051;-85
2023/03/25 07:37:30;;;;;;;33.08;4.20;;;8.90;77.30;;;;;;4215064;28;20047;-85
2023/03/25 07:39:49;;;;;;;39.22;5.07;;;8.80;77.30;;;;;;4210397;28;20108;-84
2023/03/25 07:42:08;;;;;;;42.15;4.68;;;8.80;77.30;;;;;;4206001;28;20089;-84
2023/03/25 07:44:27;;;;;;;38.35;5.28;;;8.80;77.40;;;;;;4219557;28;20050;-84
2023/03/25 07:46:47;;;;;;;38.75;5.07;;;8.90;77.60;;;;;;4221563;28;20080;-84
2023/03/25 07:49:07;;;;;;;47.03;5.85;;;8.90;77.60;;;;;;4221183;28;20030;-84
2023/03/25 07:51:26;;;;;;;38.10;5.25;;;9.00;77.60;;;;;;4223442;28;20393;-84
2023/03/25 07:53:45;;;;;;;34.47;4.88;;;9.00;77.50;;;;;;4225122;28;20053;-84
2023/03/25 07:56:06;;;;;;;43.47;5.07;;;9.00;77.20;;;;;;4221411;28;20026;-85
2023/03/25 07:58:25;;;;;;;31.85;4.70;;;9.10;77.00;;;;;;4219714;28;20069;-85
2023/03/25 08:00:44;;;;;;;28.77;4.40;;;9.10;76.80;;;;;;4224195;28;20458;-84
2023/03/25 08:03:03;;;;;;;44.70;5.20;;;9.20;76.70;;;;;;4221906;28;20089;-84
2023/03/25 08:05:23;;;;;;;31.02;5.00;;;9.20;76.40;;;;;;4218979;28;20120;-85
2023/03/25 08:07:42;;;;;;;38.42;4.75;;;9.20;76.20;;;;;;4218013;28;20038;-84
2023/03/25 08:10:02;;;;;;;36.28;4.80;;;9.20;76.20;;;;;;4221107;28;20507;-83
2023/03/25 08:12:22;;;;;;;40.10;5.80;;;9.30;76.30;;;;;;4219762;28;20033;-85
2023/03/25 08:14:41;;;;;;;30.55;5.20;;;9.30;76.30;;;;;;4209819;28;20031;-84
2023/03/25 08:17:00;;;;;;;31.52;4.38;;;9.30;76.10;;;;;;4218108;28;20049;-85
2023/03/25 08:19:19;;;;;;;43.35;5.35;;;9.30;76.20;;;;;;4221129;28;20050;-85
2023/03/25 08:21:39;;;;;;;30.10;5.07;;;9.30;76.90;;;;;;4219238;28;20035;-84
2023/03/25 08:24:01;;;;;;;41.20;5.28;;;9.40;76.00;;;;;;4209724;28;20047;-84
2023/03/25 08:26:19;;;;;;;29.20;4.50;;;9.50;75.90;;;;;;4225278;27;20060;-85
2023/03/25 08:28:39;;;;;;;26.20;4.47;;;9.50;75.50;;;;;;4216525;28;20954;-86
2023/03/25 08:31:01;;;;;;;24.45;4.15;;;9.50;75.00;;;;;;4214390;28;20054;-83
2023/03/25 08:33:25;;;;;;;23.15;4.18;;;9.50;74.70;;;;;;4207798;28;20042;-84
2023/03/25 08:35:45;;;;;;;32.80;4.32;;;9.50;74.40;;;;;;4227351;27;20080;-86
2023/03/25 08:38:05;;;;;;;33.92;6.53;;;9.50;74.20;;;;;;4221506;27;20161;-82
2023/03/25 08:40:25;;;;;;;30.23;4.18;;;9.60;74.20;;;;;;4224480;28;20038;-84
2023/03/25 08:42:45;;;;;;;41.38;5.22;;;9.60;74.30;;;;;;4211472;28;20085;-84
2023/03/25 08:45:05;;;;;;;35.10;4.25;;;9.60;74.60;;;;;;4212673;28;20039;-83
2023/03/25 08:47:25;;;;;;;28.02;4.35;;;9.60;74.70;;;;;;4224064;28;20061;-83
2023/03/25 08:49:44;;;;;;;30.55;4.35;;;9.60;74.70;;;;;;4210947;28;20095;-84
2023/03/25 08:52:07;;;;;;;34.33;3.95;;;9.60;74.80;;;;;;4207646;28;20038;-84
2023/03/25 08:54:27;;;;;;;24.02;3.42;;;9.70;75.20;;;;;;4207881;28;20509;-84
2023/03/25 08:56:47;;;;;;;20.77;3.25;;;9.80;75.10;;;;;;4218300;28;20046;-84
2023/03/25 08:59:06;;;;;;;20.15;3.35;;;9.80;75.00;;;;;;4223018;28;20043;-84
2023/03/25 09:01:25;;;;;;;30.70;4.50;;;9.90;75.00;;;;;;4222566;28;20055;-85
2023/03/25 09:03:45;;;;;;;21.02;3.90;;;9.90;74.90;;;;;;4208245;28;20042;-84
2023/03/25 09:06:05;;;;;;;24.42;3.67;;;10.00;74.70;;;;;;4222582;28;20152;-83
2023/03/25 09:08:24;;;;;;;23.17;2.50;;;10.00;74.40;;;;;;4220350;28;20042;-84
2023/03/25 09:10:44;;;;;;;21.55;3.38;;;10.00;74.30;;;;;;4222694;28;20061;-84
2023/03/25 09:13:03;;;;;;;18.30;3.40;;;10.10;74.20;;;;;;4207426;28;20039;-83
2023/03/25 09:15:22;;;;;;;25.38;3.70;;;10.20;74.20;;;;;;4210953;28;20197;-84
2023/03/25 09:17:41;;;;;;;26.75;3.03;;;10.20;74.10;;;;;;4221423;28;20246;-83
2023/03/25 09:20:00;;;;;;;28.40;4.28;;;10.30;73.70;;;;;;4219515;28;20082;-86
2023/03/25 09:22:20;;;;;;;22.63;3.80;;;10.20;73.40;;;;;;4222027;28;20047;-84
2023/03/25 09:24:39;;;;;;;34.10;4.20;;;10.20;73.60;;;;;;4220315;28;20093;-84
2023/03/25 09:27:00;;;;;;;28.52;4.05;;;10.20;73.70;;;;;;4219750;28;20625;-83
2023/03/25 09:29:19;;;;;;;22.45;3.30;;;10.20;73.70;;;;;;4225732;28;20087;-83
2023/03/25 09:31:38;;;;;;;30.52;3.72;;;10.20;73.60;;;;;;4220105;28;20034;-84
2023/03/25 09:33:57;;;;;;;29.98;4.43;;;10.20;73.50;;;;;;4220533;28;20373;-84
2023/03/25 09:36:17;;;;;;;23.80;4.18;;;10.20;73.40;;;;;;4221189;28;20038;-83
2023/03/25 09:38:36;;;;;;;24.27;3.72;;;10.30;73.50;;;;;;4220374;28;20086;-82
2023/03/25 09:40:55;;;;;;;32.35;4.60;;;10.30;73.40;;;;;;4209015;28;20043;-83
2023/03/25 09:43:26;;;;;;;30.27;3.80;;;10.30;73.40;;;;;;4215733;28;20318;-82
2023/03/25 09:45:47;;;;;;;26.88;3.92;;;10.30;73.30;;;;;;4219643;28;20054;-83
2023/03/25 09:48:29;;;;;;;20.80;3.50;;;10.40;73.50;;;;;;4221441;28;20075;-84
2023/03/25 09:50:48;;;;;;;26.05;4.53;;;10.30;73.40;;;;;;4221323;28;20479;-83
2023/03/25 09:53:29;;;;;;;30.98;3.65;;;10.40;73.60;;;;;;4218932;28;20084;-85
2023/03/25 09:55:50;;;;;;;28.55;3.42;;;10.40;73.10;;;;;;4203773;28;20027;-84
2023/03/25 09:58:26;;;;;;;24.25;3.92;;;10.40;72.70;;;;;;4223115;28;20084;-85
2023/03/25 10:00:50;;;;;;;24.92;3.75;;;10.40;72.10;;;;;;4215336;28;20058;-85
2023/03/25 10:03:18;;;;;;;30.15;4.13;;;10.30;72.00;;;;;;4227658;27;20138;-84
2023/03/25 10:05:47;;;;;;;23.17;3.65;;;10.30;71.90;;;;;;4222862;27;20100;-84
2023/03/25 10:08:25;;;;;;;30.60;3.92;;;10.20;71.90;;;;;;4220830;27;20136;-84
2023/03/25 10:11:11;;;;;;;21.58;3.67;;;10.20;72.00;;;;;;4201843;28;20091;-84
2023/03/25 10:13:56;;;;;;;30.95;4.28;;;10.20;72.30;;;;;;4208080;28;20781;-82
2023/03/25 10:16:41;;;;;;;27.27;3.95;;;10.10;72.60;;;;;;4224210;28;20039;-84
2023/03/25 10:19:18;;;;;;;38.20;4.30;;;10.10;72.80;;;;;;4223123;28;20054;-84
2023/03/25 10:21:52;;;;;;;29.75;3.75;;;10.10;73.20;;;;;;4221223;28;20102;-83
2023/03/25 10:24:19;;;;;;;17.30;3.30;;;10.20;73.90;;;;;;4207710;28;20083;-84
2023/03/25 10:26:51;;;;;;;26.65;3.78;;;10.00;73.70;;;;;;4224350;27;20038;-86
2023/03/25 10:29:16;;;;;;;19.92;3.10;;;10.10;74.10;;;;;;4205210;28;20449;-84
2023/03/25 10:31:41;;;;;;;21.85;3.45;;;10.10;74.10;;;;;;4222471;28;20072;-85
2023/03/25 10:34:09;;;;;;;21.10;3.05;;;10.10;74.20;;;;;;4221362;28;20562;-85
2023/03/25 10:36:48;;;;;;;18.42;2.75;;;10.10;73.90;;;;;;4213687;28;20350;-84
2023/03/25 10:39:20;;;;;;;18.75;2.85;;;10.30;73.60;;;;;;4203756;28;20056;-84
2023/03/25 10:41:42;;;;;;;20.77;3.22;;;10.10;73.30;;;;;;4200938;28;20047;-84
2023/03/25 10:44:07;;;;;;;25.25;3.38;;;10.10;73.30;;;;;;4223631;28;20798;-84
2023/03/25 10:46:45;;;;;;;36.80;4.53;;;10.20;73.40;;;;;;4222721;28;20071;-84
2023/03/25 10:49:04;;;;;;;27.90;3.40;;;10.20;73.40;;;;;;4219709;28;20774;-85
2023/03/25 10:51:31;;;;;;;31.42;4.25;;;10.10;73.00;;;;;;4228628;27;20042;-85
2023/03/25 10:53:51;;;;;;;34.47;5.53;;;10.20;73.30;;;;;;4225971;27;20058;-84
2023/03/25 10:56:13;;;;;;;27.27;4.57;;;10.20;73.20;;;;;;4223456;27;20077;-85
2023/03/25 10:58:36;;;;;;;28.25;3.20;;;10.20;73.40;;;;;;4225559;28;20045;-83
2023/03/25 11:00:55;;;;;;;22.50;4.35;;;10.20;73.40;;;;;;4222861;28;20050;-84
2023/03/25 11:03:20;;;;;;;31.25;3.63;;;10.30;73.30;;;;;;4222519;28;20120;-83
2023/03/25 11:05:40;;;;;;;21.98;3.70;;;10.20;73.00;;;;;;4221080;28;20051;-83
2023/03/25 11:08:03;;;;;;;32.95;3.67;;;10.30;72.90;;;;;;4226021;28;20046;-84
2023/03/25 11:10:29;;;;;;;29.40;4.00;;;10.20;72.60;;;;;;4222620;28;20047;-85
2023/03/25 11:12:52;;;;;;;30.67;4.47;;;10.20;72.50;;;;;;4209534;27;20043;-83
2023/03/25 11:15:23;;;;;;;29.27;3.30;;;10.20;72.80;;;;;;4222376;28;20061;-84
2023/03/25 11:17:45;;;;;;;38.50;4.35;;;10.20;73.10;;;;;;4224230;28;20054;-83
2023/03/25 11:20:09;;;;;;;26.42;3.42;;;10.30;73.30;;;;;;4223423;27;20524;-84
2023/03/25 11:22:33;;;;;;;27.80;3.75;;;10.40;73.00;;;;;;4220345;27;20042;-82
2023/03/25 11:25:00;;;;;;;25.40;3.22;;;10.40;72.40;;;;;;4225801;27;20035;-83
2023/03/25 11:27:28;;;;;;;25.75;3.90;;;10.40;71.50;;;;;;4225112;27;20081;-82
2023/03/25 11:30:00;;;;;;;25.27;3.58;;;10.50;71.50;;;;;;4223473;28;20416;-83
2023/03/25 11:32:39;;;;;;;20.75;3.25;;;10.50;71.10;;;;;;4218910;27;20042;-83
2023/03/25 11:35:06;;;;;;;29.25;3.55;;;10.50;70.70;;;;;;4222992;27;20046;-83
2023/03/25 11:37:29;;;;;;;24.27;2.88;;;10.50;70.40;;;;;;4207266;28;20078;-84
2023/03/25 11:39:55;;;;;;;22.35;3.38;;;10.60;70.50;;;;;;4222897;28;20050;-83
2023/03/25 11:42:31;;;;;;;15.90;2.75;;;10.50;70.40;;;;;;4222689;27;20073;-83
2023/03/25 11:44:53;;;;;;;17.17;2.78;;;10.50;70.60;;;;;;4223643;27;20112;-84
2023/03/25 11:47:20;;;;;;;20.35;3.17;;;10.50;70.10;;;;;;4220964;28;20039;-83
2023/03/25 11:49:40;;;;;;;17.92;2.55;;;10.50;69.30;;;;;;4218113;27;20550;-83
2023/03/25 11:52:03;;;;;;;22.33;3.00;;;10.50;69.20;;;;;;4220249;28;20027;-83
2023/03/25 11:54:25;;;;;;;16.30;3.22;;;10.50;69.00;;;;;;4220393;27;20034;-83
2023/03/25 11:56:48;;;;;;;21.02;3.40;;;10.50;69.30;;;;;;4220975;28;20104;-83
2023/03/25 11:59:24;;;;;;;25.85;3.95;;;10.50;69.90;;;;;;4224184;28;20058;-83
2023/03/25 12:01:49;;;;;;;21.17;3.00;;;10.50;70.20;;;;;;4224893;27;20473;-83
2023/03/25 12:04:21;;;;;;;25.88;2.90;;;10.50;70.30;;;;;;4219889;28;20532;-83